createdAt,value
2019-01-19T00:00:16.868Z,101817.20
2019-01-19T00:03:39.396Z,101813.23
2019-01-19T00:07:07.508Z,101809.19
2019-01-19T00:11:08.120Z,101807.41
2019-01-19T00:14:40.224Z,101810.35
2019-01-19T00:18:29.154Z,101814.76
2019-01-19T00:21:54.901Z,101807.17
2019-01-19T00:25:15.869Z,101813.58
2019-01-19T00:28:35.580Z,101814.77
2019-01-19T00:31:49.933Z,101817.30
2019-01-19T00:35:47.049Z,101821.75
2019-01-19T00:39:08.725Z,101817.85
2019-01-19T00:42:33.405Z,101820.45
2019-01-19T00:46:17.772Z,101818.69
2019-01-19T00:49:31.415Z,101819.63
2019-01-19T00:53:12.280Z,101816.16
2019-01-19T00:56:43.762Z,101809.94
2019-01-19T00:59:52.372Z,101822.59
2019-01-19T01:03:24.621Z,101819.87
2019-01-19T01:06:59.275Z,101822.41
2019-01-19T01:10:24.486Z,101821.58
2019-01-19T01:14:11.099Z,101824.50
2019-01-19T01:17:30.587Z,101825.70
2019-01-19T01:21:20.650Z,101819.05
2019-01-19T01:25:04.686Z,101822.48
2019-01-19T01:28:38.173Z,101823.56
2019-01-19T01:31:52.244Z,101821.21
2019-01-19T01:35:32.773Z,101822.08
2019-01-19T01:39:06.169Z,101817.67
2019-01-19T01:42:45.077Z,101818.42
2019-01-19T01:46:12.271Z,101808.89
2019-01-19T01:49:46.765Z,101814.34
2019-01-19T01:53:23.823Z,101815.28
2019-01-19T01:56:27.827Z,101810.44
2019-01-19T01:59:55.391Z,101811.74
2019-01-19T02:03:46.468Z,101808.27
2019-01-19T02:07:27.797Z,101806.07
2019-01-19T02:11:26.972Z,101810.41
2019-01-19T02:14:44.754Z,101813.29
2019-01-19T02:18:27.126Z,101811.99
2019-01-19T02:22:11.920Z,101807.15
2019-01-19T02:26:01.519Z,101801.95
2019-01-19T02:29:42.267Z,101807.51
2019-01-19T02:33:18.678Z,101813.39
2019-01-19T02:36:58.093Z,101811.58
2019-01-19T02:40:30.504Z,101819.42
2019-01-19T02:44:30.896Z,101813.39
2019-01-19T02:48:08.550Z,101808.66
2019-01-19T02:51:32.202Z,101808.09
2019-01-19T02:55:36.161Z,101808.56
2019-01-19T02:59:13.263Z,101811.63
2019-01-19T03:02:36.950Z,101809.72
2019-01-19T03:06:03.433Z,101804.70
2019-01-19T03:09:41.706Z,101804.77
2019-01-19T03:13:12.125Z,101810.80
2019-01-19T03:16:39.713Z,101804.88
2019-01-19T03:19:59.019Z,101799.39
2019-01-19T03:23:15.383Z,101802.57
2019-01-19T03:27:06.731Z,101800.91
2019-01-19T03:31:06.809Z,101798.70
2019-01-19T03:34:42.857Z,101804.05
2019-01-19T03:38:14.178Z,101801.45
2019-01-19T03:41:56.745Z,101795.05
2019-01-19T03:45:23.001Z,101794.69
2019-01-19T03:49:09.071Z,101790.97
2019-01-19T03:52:24.582Z,101792.41
2019-01-19T03:56:14.898Z,101794.25
2019-01-19T03:59:35.735Z,101801.76
2019-01-19T04:03:20.469Z,101792.36
2019-01-19T04:06:42.708Z,101793.30
2019-01-19T04:10:20.427Z,101792.02
2019-01-19T04:14:00.391Z,101792.92
2019-01-19T04:17:37.355Z,101786.92
2019-01-19T04:21:20.948Z,101783.16
2019-01-19T04:24:52.285Z,101779.28
2019-01-19T04:27:56.438Z,101781.95
2019-01-19T04:31:00.642Z,101785.13
2019-01-19T04:34:05.069Z,101790.21
2019-01-19T04:37:09.454Z,101788.08
2019-01-19T04:40:14.275Z,101788.17
2019-01-19T04:43:18.749Z,101787.07
2019-01-19T04:46:23.118Z,101788.23
2019-01-19T04:49:27.628Z,101786.30
2019-01-19T04:52:31.527Z,101787.39
2019-01-19T04:55:35.615Z,101791.00
2019-01-19T04:58:39.622Z,101786.82
2019-01-19T05:01:43.679Z,101785.14
2019-01-19T05:04:47.494Z,101787.84
2019-01-19T05:07:51.376Z,101787.17
2019-01-19T05:10:55.268Z,101774.67
2019-01-19T05:13:59.195Z,101781.74
2019-01-19T05:17:03.463Z,101774.39
2019-01-19T05:20:08.904Z,101772.34
2019-01-19T05:23:12.791Z,101776.84
2019-01-19T05:26:17.265Z,101783.02
2019-01-19T05:29:21.085Z,101778.34
2019-01-19T05:32:25.671Z,101776.72
2019-01-19T05:35:30.156Z,101779.42
2019-01-19T05:38:34.284Z,101780.41
2019-01-19T05:41:38.267Z,101781.81
2019-01-19T05:44:42.081Z,101779.76
2019-01-19T05:47:45.961Z,101774.62
2019-01-19T05:50:49.800Z,101773.88
2019-01-19T05:53:53.699Z,101776.61
2019-01-19T05:56:57.627Z,101778.00
2019-01-19T06:00:01.524Z,101779.02
2019-01-19T06:03:06.169Z,101783.02
2019-01-19T06:06:10.439Z,101779.66
2019-01-19T06:09:14.405Z,101784.09
2019-01-19T06:12:18.276Z,101779.86
2019-01-19T06:15:23.340Z,101778.19
2019-01-19T06:18:28.330Z,101785.72
2019-01-19T06:21:35.527Z,101784.04
2019-01-19T06:24:39.524Z,101783.66
2019-01-19T06:27:43.819Z,101789.86
2019-01-19T06:30:47.611Z,101787.72
2019-01-19T06:33:51.515Z,101784.84
2019-01-19T06:36:55.478Z,101787.57
2019-01-19T06:39:59.388Z,101789.45
2019-01-19T06:43:03.197Z,101781.70
2019-01-19T06:46:07.173Z,101789.33
2019-01-19T06:49:11.107Z,101792.59
2019-01-19T06:52:15.099Z,101799.74
2019-01-19T06:55:22.077Z,101785.52
2019-01-19T06:58:25.980Z,101790.50
2019-01-19T07:01:29.944Z,101788.05
2019-01-19T07:04:33.787Z,101791.63
2019-01-19T07:07:37.761Z,101800.45
2019-01-19T07:10:41.648Z,101802.38
2019-01-19T07:13:45.466Z,101802.06
2019-01-19T07:16:49.295Z,101802.58
2019-01-19T07:19:53.158Z,101802.60
2019-01-19T07:22:57.105Z,101807.37
2019-01-19T07:26:00.933Z,101808.78
2019-01-19T07:29:04.880Z,101814.03
2019-01-19T07:32:08.880Z,101812.32
2019-01-19T07:35:12.901Z,101817.09
2019-01-19T07:38:16.821Z,101819.39
2019-01-19T07:41:20.707Z,101822.85
2019-01-19T07:44:24.556Z,101824.23
2019-01-19T07:47:28.613Z,101823.31
2019-01-19T07:50:32.493Z,101818.47
2019-01-19T07:53:36.471Z,101827.16
2019-01-19T07:56:40.387Z,101831.02
2019-01-19T07:59:44.278Z,101828.41
2019-01-19T08:02:48.218Z,101827.16
2019-01-19T08:05:52.127Z,101831.53
2019-01-19T08:08:56.890Z,101836.77
2019-01-19T08:12:00.771Z,101834.61
2019-01-19T08:15:05.711Z,101841.22
2019-01-19T08:18:09.654Z,101841.61
2019-01-19T08:21:13.486Z,101847.37
2019-01-19T08:24:17.370Z,101850.91
2019-01-19T08:27:21.257Z,101855.80
2019-01-19T08:30:27.597Z,101853.25
2019-01-19T08:33:31.693Z,101858.94
2019-01-19T08:36:35.653Z,101866.88
2019-01-19T08:39:39.619Z,101864.06
2019-01-19T08:42:43.686Z,101868.95
2019-01-19T08:45:49.627Z,101868.06
2019-01-19T08:48:53.613Z,101868.85
2019-01-19T08:51:57.503Z,101869.34
2019-01-19T08:55:01.291Z,101871.06
2019-01-19T08:58:05.580Z,101871.91
2019-01-19T09:01:09.526Z,101877.13
2019-01-19T09:04:13.425Z,101880.13
2019-01-19T09:07:17.304Z,101876.67
2019-01-19T09:10:21.674Z,101881.91
2019-01-19T09:13:25.621Z,101880.06
2019-01-19T09:16:29.575Z,101886.53
2019-01-19T09:19:33.455Z,101884.04
2019-01-19T09:22:37.432Z,101884.48
2019-01-19T09:25:41.330Z,101882.17
2019-01-19T09:28:45.262Z,101889.95
2019-01-19T09:31:49.133Z,101879.03
2019-01-19T09:34:53.019Z,101885.27
2019-01-19T09:37:56.955Z,101879.58
2019-01-19T09:41:01.031Z,101870.89
2019-01-19T09:44:05.690Z,101879.77
2019-01-19T09:47:09.749Z,101877.16
2019-01-19T09:50:14.934Z,101880.64
2019-01-19T09:53:18.827Z,101891.22
2019-01-19T09:56:22.775Z,101881.64
2019-01-19T09:59:26.668Z,101888.17
2019-01-19T10:02:30.635Z,101887.77
2019-01-19T10:05:34.635Z,101888.30
2019-01-19T10:08:38.532Z,101889.23
2019-01-19T10:11:42.483Z,101887.00
2019-01-19T10:14:46.344Z,101886.92
2019-01-19T10:17:50.408Z,101897.32
2019-01-19T10:20:54.665Z,101902.91
2019-01-19T10:23:58.629Z,101906.83
2019-01-19T10:27:02.518Z,101905.06
2019-01-19T10:30:09.445Z,101905.93
2019-01-19T10:33:13.411Z,101899.02
2019-01-19T10:36:17.282Z,101896.76
2019-01-19T10:39:21.165Z,101898.14
2019-01-19T10:42:25.042Z,101891.53
2019-01-19T10:45:28.956Z,101895.91
2019-01-19T10:48:32.836Z,101888.61
2019-01-19T10:51:36.895Z,101882.92
2019-01-19T10:54:40.879Z,101883.41
2019-01-19T10:57:44.916Z,101888.30
2019-01-19T11:00:48.808Z,101884.46
2019-01-19T11:03:53.697Z,101881.52
2019-01-19T11:06:57.597Z,101879.11
2019-01-19T11:10:01.494Z,101881.39
2019-01-19T11:13:05.556Z,101883.63
2019-01-19T11:16:09.529Z,101880.56
2019-01-19T11:19:13.413Z,101877.95
2019-01-19T11:22:17.307Z,101877.03
2019-01-19T11:25:21.240Z,101875.91
2019-01-19T11:28:25.142Z,101872.27
2019-01-19T11:31:29.024Z,101865.34
2019-01-19T11:34:32.903Z,101861.61
2019-01-19T11:37:36.799Z,101869.59
2019-01-19T11:40:40.683Z,101860.05
2019-01-19T11:43:44.491Z,101857.87
2019-01-19T11:46:48.303Z,101851.86
2019-01-19T11:49:52.127Z,101851.52
2019-01-19T11:52:56.063Z,101848.13
2019-01-19T11:56:00.048Z,101847.35
2019-01-19T11:59:04.004Z,101843.88
2019-01-19T12:02:07.890Z,101840.42
2019-01-19T12:05:11.853Z,101835.75
2019-01-19T12:08:19.671Z,101834.90
2019-01-19T12:11:21.251Z,101833.86
2019-01-19T12:14:25.069Z,101831.33
2019-01-19T12:17:29.023Z,101830.97
2019-01-19T12:20:35.706Z,101826.20
2019-01-19T12:23:39.581Z,101824.04
2019-01-19T12:26:43.464Z,101823.20
2019-01-19T12:29:47.261Z,101830.07
2019-01-19T12:32:51.146Z,101824.33
2019-01-19T12:35:55.008Z,101822.95
2019-01-19T12:38:58.823Z,101821.17
2019-01-19T12:42:02.758Z,101823.80
2019-01-19T12:45:09.824Z,101824.31
2019-01-19T12:48:13.693Z,101826.95
2019-01-19T12:51:17.576Z,101827.84
2019-01-19T12:54:21.384Z,101821.70
2019-01-19T12:57:25.283Z,101818.64
2019-01-19T13:00:29.228Z,101816.02
2019-01-19T13:03:33.196Z,101813.39
2019-01-19T13:06:41.922Z,101809.47
2019-01-19T13:09:52.484Z,101805.95
2019-01-19T13:13:23.510Z,101809.87
2019-01-19T13:17:07.004Z,101807.23
2019-01-19T13:20:19.617Z,101803.27
2019-01-19T13:23:51.233Z,101796.72
2019-01-19T13:27:35.374Z,101797.64
2019-01-19T13:31:10.364Z,101796.79
2019-01-19T13:35:05.631Z,101794.17
2019-01-19T13:38:45.442Z,101793.77
2019-01-19T13:42:35.410Z,101790.77
2019-01-19T13:46:03.968Z,101789.86
2019-01-19T13:50:00.098Z,101788.55
2019-01-19T13:53:31.671Z,101789.84
2019-01-19T13:57:22.751Z,101790.25
2019-01-19T14:00:55.711Z,101784.55
2019-01-19T14:04:25.524Z,101781.48
2019-01-19T14:08:13.391Z,101781.88
2019-01-19T14:11:53.640Z,101780.97
2019-01-19T14:15:35.564Z,101778.84
2019-01-19T14:19:19.371Z,101770.49
2019-01-19T14:23:08.662Z,101773.05
2019-01-19T14:26:54.917Z,101765.14
2019-01-19T14:30:45.709Z,101767.30
2019-01-19T14:34:12.668Z,101768.56
2019-01-19T14:37:58.535Z,101764.57
2019-01-19T14:41:38.918Z,101759.27
2019-01-19T14:45:00.989Z,101751.75
2019-01-19T14:49:10.749Z,101756.47
2019-01-19T14:52:48.623Z,101756.45
2019-01-19T14:56:24.582Z,101746.73
2019-01-19T14:59:50.739Z,101745.75
2019-01-19T15:03:32.718Z,101739.54
2019-01-19T15:07:20.732Z,101740.75
2019-01-19T15:10:36.491Z,101740.67
2019-01-19T15:14:14.360Z,101741.89
2019-01-19T15:18:13.396Z,101737.87
2019-01-19T15:21:34.270Z,101736.03
2019-01-19T15:24:51.009Z,101734.14
2019-01-19T15:28:43.541Z,101734.92
2019-01-19T15:32:37.950Z,101741.30
2019-01-19T15:36:21.599Z,101735.90
2019-01-19T15:39:38.488Z,101744.05
2019-01-19T15:43:08.472Z,101743.44
2019-01-19T15:46:40.428Z,101750.70
2019-01-19T15:50:31.721Z,101740.16
2019-01-19T15:54:26.150Z,101747.86
2019-01-19T15:58:20.477Z,101744.60
2019-01-19T16:02:02.999Z,101746.59
2019-01-19T16:05:17.463Z,101750.36
2019-01-19T16:08:43.854Z,101747.98
2019-01-19T16:12:24.822Z,101751.39
2019-01-19T16:16:07.020Z,101744.72
2019-01-19T16:19:33.145Z,101746.33
2019-01-19T16:23:10.741Z,101745.34
2019-01-19T16:26:58.635Z,101742.25
2019-01-19T16:30:32.905Z,101745.19
2019-01-19T16:34:01.606Z,101747.25
2019-01-19T16:37:14.834Z,101745.36
2019-01-19T16:40:34.199Z,101742.20
2019-01-19T16:44:00.446Z,101748.23
2019-01-19T16:47:51.439Z,101752.09
2019-01-19T16:51:18.618Z,101752.41
2019-01-19T16:54:57.744Z,101747.05
2019-01-19T16:58:42.043Z,101751.34
2019-01-19T17:02:36.297Z,101749.48
2019-01-19T17:06:03.572Z,101757.62
2019-01-19T17:09:34.534Z,101755.77
2019-01-19T17:13:08.212Z,101751.71
2019-01-19T17:17:05.441Z,101755.53
2019-01-19T17:20:25.133Z,101754.55
2019-01-19T17:24:31.788Z,101752.20
2019-01-19T17:28:28.922Z,101756.45
2019-01-19T17:32:08.330Z,101751.67
2019-01-19T17:35:53.106Z,101756.73
2019-01-19T17:39:40.368Z,101753.57
2019-01-19T17:43:10.143Z,101748.73
2019-01-19T17:46:50.595Z,101751.65
2019-01-19T17:50:44.662Z,101758.54
2019-01-19T17:54:33.096Z,101750.78
2019-01-19T17:58:01.575Z,101748.98
2019-01-19T18:01:30.342Z,101745.05
2019-01-19T18:05:04.508Z,101740.60
2019-01-19T18:08:26.376Z,101745.35
2019-01-19T18:11:59.677Z,101747.47
2019-01-19T18:15:37.577Z,101748.27
2019-01-19T18:19:17.569Z,101743.86
2019-01-19T18:22:57.108Z,101748.05
2019-01-19T18:26:28.781Z,101747.09
2019-01-19T18:30:30.665Z,101745.45
2019-01-19T18:34:02.004Z,101755.03
2019-01-19T18:37:52.414Z,101746.59
2019-01-19T18:41:25.278Z,101749.04
2019-01-19T18:44:58.248Z,101746.27
2019-01-19T18:49:01.418Z,101750.98
2019-01-19T18:52:29.537Z,101757.00
2019-01-19T18:56:04.765Z,101749.16
2019-01-19T18:59:55.928Z,101751.70
2019-01-19T19:03:36.879Z,101755.72
2019-01-19T19:07:17.033Z,101753.08
2019-01-19T19:10:52.453Z,101747.80
2019-01-19T19:14:38.441Z,101750.41
2019-01-19T19:18:07.555Z,101749.54
2019-01-19T19:21:21.308Z,101742.90
2019-01-19T19:25:05.163Z,101740.09
2019-01-19T19:28:44.145Z,101744.38
2019-01-19T19:31:58.822Z,101741.67
2019-01-19T19:35:37.840Z,101747.58
2019-01-19T19:39:23.045Z,101743.58
2019-01-19T19:43:03.655Z,101743.94
2019-01-19T19:46:38.555Z,101747.75
2019-01-19T19:50:29.301Z,101748.87
2019-01-19T19:53:33.269Z,101748.02
2019-01-19T19:56:35.691Z,101750.98
2019-01-19T19:59:39.526Z,101750.84
2019-01-19T20:02:43.330Z,101753.35
2019-01-19T20:05:47.193Z,101753.72
2019-01-19T20:08:51.008Z,101746.64
2019-01-19T20:12:00.562Z,101745.63
2019-01-19T20:15:05.749Z,101741.56
2019-01-19T20:18:09.584Z,101745.80
2019-01-19T20:21:13.479Z,101742.66
2019-01-19T20:24:17.349Z,101746.45
2019-01-19T20:27:21.164Z,101747.64
2019-01-19T20:30:25.123Z,101746.28
2019-01-19T20:33:29.031Z,101753.55
2019-01-19T20:36:32.927Z,101755.56
2019-01-19T20:39:36.816Z,101758.89
2019-01-19T20:42:40.821Z,101758.42
2019-01-19T20:45:44.704Z,101753.88
2019-01-19T20:48:48.530Z,101752.47
2019-01-19T20:51:52.357Z,101748.50
2019-01-19T20:54:56.269Z,101744.56
2019-01-19T20:58:00.180Z,101743.08
2019-01-19T21:01:04.097Z,101741.70
2019-01-19T21:04:07.998Z,101747.84
2019-01-19T21:07:11.846Z,101745.39
2019-01-19T21:10:15.821Z,101742.36
2019-01-19T21:13:19.675Z,101745.61
2019-01-19T21:16:23.495Z,101751.64
2019-01-19T21:19:27.307Z,101739.62
2019-01-19T21:22:31.205Z,101746.40
2019-01-19T21:25:35.098Z,101748.89
2019-01-19T21:28:38.985Z,101758.16
2019-01-19T21:31:42.825Z,101758.92
2019-01-19T21:34:46.631Z,101764.72
2019-01-19T21:37:50.515Z,101761.22
2019-01-19T21:40:54.320Z,101761.77
2019-01-19T21:43:58.160Z,101760.11
2019-01-19T21:47:02.062Z,101769.20
2019-01-19T21:50:06.783Z,101761.77
2019-01-19T21:53:10.682Z,101756.56
2019-01-19T21:56:14.481Z,101757.91
2019-01-19T21:59:18.310Z,101750.78
2019-01-19T22:02:22.127Z,101756.81
2019-01-19T22:05:25.945Z,101754.06
2019-01-19T22:08:29.757Z,101751.71
2019-01-19T22:11:33.563Z,101756.16
2019-01-19T22:14:37.463Z,101757.38
2019-01-19T22:17:41.444Z,101762.34
2019-01-19T22:20:45.251Z,101756.36
2019-01-19T22:23:49.047Z,101766.75
2019-01-19T22:26:53.660Z,101761.09
2019-01-19T22:29:57.473Z,101761.05
2019-01-19T22:33:01.551Z,101760.86
2019-01-19T22:36:05.439Z,101763.85
2019-01-19T22:39:09.277Z,101769.05
2019-01-19T22:42:13.097Z,101765.50
2019-01-19T22:45:17.084Z,101767.52
2019-01-19T22:48:20.900Z,101760.67
2019-01-19T22:51:24.710Z,101764.56
2019-01-19T22:54:28.516Z,101762.32
2019-01-19T22:57:32.364Z,101759.61
2019-01-19T23:01:04.214Z,101758.31
2019-01-19T23:04:08.190Z,101761.27
2019-01-19T23:07:12.012Z,101763.73
2019-01-19T23:10:15.954Z,101768.39
2019-01-19T23:13:19.870Z,101763.73
2019-01-19T23:16:23.807Z,101760.67
2019-01-19T23:19:27.667Z,101765.39
2019-01-19T23:22:31.672Z,101768.78
2019-01-19T23:25:35.539Z,101767.64
2019-01-19T23:28:39.358Z,101764.89
2019-01-19T23:31:43.434Z,101764.89
2019-01-19T23:34:47.336Z,101764.61
2019-01-19T23:37:51.228Z,101764.05
2019-01-19T23:40:55.045Z,101763.15
2019-01-19T23:43:58.995Z,101756.77
2019-01-19T23:47:02.829Z,101756.13
2019-01-19T23:50:06.771Z,101754.19
2019-01-19T23:53:10.689Z,101756.08
2019-01-19T23:56:14.504Z,101756.66
2019-01-19T23:59:18.345Z,101762.84
